Time;durP1;ratioP1;P1;durP2;ratioP2;P2;SDS_P1;SDS_P2;PMS_P1;PMS_P2;Temp;Humidity;BMP_temperature;BMP_pressure;BME280_temperature;BME280_humidity;BME280_pressure;Samples;Min_cycle;Max_cycle;Signal;HPM_P1;HPM_P2
2023/09/30 00:01:28;;;;;;;8.75;4.63;;;;;;;;;;5924781;28;20037;-74
2023/09/30 00:04:19;;;;;;;7.40;4.50;;;;;;;;;;5914379;28;20139;-76
2023/09/30 00:07:10;;;;;;;12.90;3.67;;;;;;;;;;5914673;28;20055;-75
2023/09/30 00:10:00;;;;;;;6.93;3.38;;;;;;;;;;5914418;28;20049;-75
2023/09/30 00:12:51;;;;;;;3.65;2.80;;;;;;;;;;5914802;28;20387;-75
2023/09/30 00:15:42;;;;;;;9.60;3.65;;;;;;;;;;5914044;28;20483;-74
2023/09/30 00:18:33;;;;;;;10.77;4.10;;;;;;;;;;5912698;28;20514;-74
2023/09/30 00:21:24;;;;;;;8.25;4.25;;;;;;;;;;5913886;28;20048;-74
2023/09/30 00:24:15;;;;;;;16.23;3.88;;;;;;;;;;5913920;28;20056;-74
2023/09/30 00:27:06;;;;;;;3.15;2.72;;;;;;;;;;5913789;28;20187;-74
2023/09/30 00:29:57;;;;;;;6.28;3.38;;;;;;;;;;5914457;28;20112;-74
2023/09/30 00:32:48;;;;;;;2.88;2.40;;;;;;;;;;5913937;28;20064;-74
2023/09/30 00:35:39;;;;;;;7.90;3.08;;;;;;;;;;5913803;28;20154;-75
2023/09/30 00:38:29;;;;;;;4.80;3.47;;;;;;;;;;5913694;28;20045;-74
2023/09/30 00:41:20;;;;;;;7.93;3.50;;;;;;;;;;5913771;28;20070;-76
2023/09/30 00:44:11;;;;;;;4.82;3.08;;;;;;;;;;5913269;28;20053;-74
2023/09/30 00:47:02;;;;;;;4.47;3.28;;;;;;;;;;5913695;28;20047;-75
2023/09/30 00:49:53;;;;;;;3.35;2.67;;;;;;;;;;5913989;28;20383;-74
2023/09/30 00:52:45;;;;;;;5.68;3.03;;;;;;;;;;5913462;28;20040;-77
2023/09/30 00:55:37;;;;;;;4.32;3.13;;;;;;;;;;5913171;28;20044;-75
2023/09/30 00:58:30;;;;;;;3.63;3.28;;;;;;;;;;5913117;28;20047;-74
2023/09/30 01:01:21;;;;;;;7.70;3.42;;;;;;;;;;5895570;28;20049;-75
2023/09/30 01:04:13;;;;;;;4.68;2.92;;;;;;;;;;5895256;28;20040;-74
2023/09/30 01:07:05;;;;;;;5.00;3.05;;;;;;;;;;5913215;28;20048;-75
2023/09/30 01:09:55;;;;;;;4.28;3.45;;;;;;;;;;5913481;28;20055;-76
2023/09/30 01:12:46;;;;;;;5.05;4.07;;;;;;;;;;5912151;28;20044;-75
2023/09/30 01:15:38;;;;;;;4.63;3.47;;;;;;;;;;5912445;28;20044;-74
2023/09/30 01:18:28;;;;;;;3.42;3.00;;;;;;;;;;5912728;28;20040;-74
2023/09/30 01:21:20;;;;;;;13.63;3.90;;;;;;;;;;5895079;28;20056;-74
2023/09/30 01:24:11;;;;;;;3.97;3.42;;;;;;;;;;5894975;28;20045;-74
2023/09/30 01:27:02;;;;;;;3.80;3.03;;;;;;;;;;5912795;28;20050;-75
2023/09/30 01:29:52;;;;;;;8.75;4.35;;;;;;;;;;5913073;28;20051;-76
2023/09/30 01:32:44;;;;;;;3.80;3.28;;;;;;;;;;5912631;28;20040;-74
2023/09/30 01:35:35;;;;;;;6.35;3.00;;;;;;;;;;5912497;28;20056;-74
2023/09/30 01:38:26;;;;;;;8.18;3.47;;;;;;;;;;5912162;28;20503;-75
2023/09/30 01:41:16;;;;;;;11.43;3.13;;;;;;;;;;5912317;28;20052;-74
2023/09/30 01:44:09;;;;;;;8.70;3.50;;;;;;;;;;5911996;28;20499;-74
2023/09/30 01:47:00;;;;;;;2.95;2.53;;;;;;;;;;5912419;28;20614;-75
2023/09/30 01:49:51;;;;;;;5.40;3.17;;;;;;;;;;5912120;28;20043;-75
2023/09/30 01:52:41;;;;;;;3.22;2.92;;;;;;;;;;5912014;28;20045;-74
2023/09/30 01:55:38;;;;;;;4.50;3.28;;;;;;;;;;5912190;28;20446;-74
2023/09/30 01:58:29;;;;;;;6.55;3.72;;;;;;;;;;5910266;28;20041;-74
2023/09/30 02:01:20;;;;;;;6.65;2.75;;;;;;;;;;5911700;28;20380;-75
2023/09/30 02:04:15;;;;;;;5.85;2.80;;;;;;;;;;5910637;28;20052;-75
2023/09/30 02:07:06;;;;;;;4.47;2.92;;;;;;;;;;5911703;28;20047;-74
2023/09/30 02:09:57;;;;;;;2.97;2.33;;;;;;;;;;5912033;28;20041;-74
2023/09/30 02:12:48;;;;;;;5.10;3.55;;;;;;;;;;5911819;28;20044;-75
2023/09/30 02:15:42;;;;;;;3.38;2.90;;;;;;;;;;5911519;28;20052;-74
2023/09/30 02:18:33;;;;;;;10.80;3.28;;;;;;;;;;5911508;28;20132;-74
2023/09/30 02:21:24;;;;;;;2.97;2.08;;;;;;;;;;5911375;28;20049;-74
2023/09/30 02:24:15;;;;;;;4.63;3.10;;;;;;;;;;5911214;28;20044;-74
2023/09/30 02:27:06;;;;;;;7.05;3.92;;;;;;;;;;5911279;28;20127;-75
2023/09/30 02:29:57;;;;;;;3.42;2.53;;;;;;;;;;5911645;28;20135;-76
2023/09/30 02:32:47;;;;;;;7.47;3.00;;;;;;;;;;5911152;28;20045;-75
2023/09/30 02:35:45;;;;;;;5.70;3.72;;;;;;;;;;5910970;28;20074;-74
2023/09/30 02:38:37;;;;;;;4.75;3.40;;;;;;;;;;5910970;28;20049;-74
2023/09/30 02:41:29;;;;;;;4.00;2.70;;;;;;;;;;5911134;28;20037;-75
2023/09/30 02:44:19;;;;;;;4.45;2.65;;;;;;;;;;5910838;28;20496;-74
2023/09/30 02:47:10;;;;;;;4.03;2.90;;;;;;;;;;5910795;28;20525;-75
2023/09/30 02:50:02;;;;;;;4.15;3.13;;;;;;;;;;5910516;28;20047;-75
2023/09/30 02:52:52;;;;;;;5.70;3.05;;;;;;;;;;5893434;28;20047;-75
2023/09/30 02:55:43;;;;;;;4.65;2.50;;;;;;;;;;5910619;28;20091;-75
2023/09/30 02:58:34;;;;;;;10.90;3.50;;;;;;;;;;5910387;28;20045;-74
2023/09/30 03:01:26;;;;;;;5.00;2.65;;;;;;;;;;5910785;28;20050;-75
2023/09/30 03:04:19;;;;;;;5.60;3.70;;;;;;;;;;5910609;28;20049;-74
2023/09/30 03:07:10;;;;;;;3.78;3.40;;;;;;;;;;5910375;28;20062;-74
2023/09/30 03:10:05;;;;;;;3.95;3.17;;;;;;;;;;5910609;28;20040;-76
2023/09/30 03:13:01;;;;;;;4.25;3.22;;;;;;;;;;5893856;28;20059;-75
2023/09/30 03:15:52;;;;;;;4.10;3.25;;;;;;;;;;5893330;28;20108;-74
2023/09/30 03:18:44;;;;;;;8.32;3.65;;;;;;;;;;5910026;28;20048;-74
2023/09/30 03:21:35;;;;;;;8.98;3.03;;;;;;;;;;5910316;28;20048;-73
2023/09/30 03:24:26;;;;;;;4.22;3.40;;;;;;;;;;5910445;28;20044;-74
2023/09/30 03:27:17;;;;;;;4.05;3.08;;;;;;;;;;5910421;28;20048;-73
2023/09/30 03:30:09;;;;;;;7.32;2.85;;;;;;;;;;5910341;28;20175;-73
2023/09/30 03:33:01;;;;;;;2.92;2.50;;;;;;;;;;5909515;28;20179;-73
2023/09/30 03:35:52;;;;;;;2.45;2.25;;;;;;;;;;5911300;28;20495;-74
2023/09/30 03:38:43;;;;;;;6.78;3.13;;;;;;;;;;5914930;28;20158;-74
2023/09/30 03:41:36;;;;;;;4.80;2.83;;;;;;;;;;5913828;28;20066;-73
2023/09/30 03:44:28;;;;;;;4.47;2.40;;;;;;;;;;5914619;28;20040;-74
2023/09/30 03:47:20;;;;;;;3.20;2.10;;;;;;;;;;5914797;28;20052;-73
2023/09/30 03:50:17;;;;;;;5.13;3.08;;;;;;;;;;5914720;28;20048;-73
2023/09/30 03:53:07;;;;;;;4.35;3.67;;;;;;;;;;5913378;28;20048;-73
2023/09/30 03:55:58;;;;;;;4.35;3.03;;;;;;;;;;5915033;28;20060;-73
2023/09/30 03:58:49;;;;;;;5.53;3.72;;;;;;;;;;5914488;28;20044;-74
2023/09/30 04:01:40;;;;;;;4.15;2.80;;;;;;;;;;5914350;28;20049;-74
2023/09/30 04:04:31;;;;;;;6.45;3.70;;;;;;;;;;5913225;28;20590;-74
2023/09/30 04:07:27;;;;;;;5.13;2.70;;;;;;;;;;5914458;28;20052;-74
2023/09/30 04:10:18;;;;;;;3.22;2.92;;;;;;;;;;5914472;28;20052;-75
2023/09/30 04:13:11;;;;;;;4.03;3.45;;;;;;;;;;5914269;28;20048;-74
2023/09/30 04:16:02;;;;;;;4.53;2.78;;;;;;;;;;5914388;28;20047;-75
2023/09/30 04:18:53;;;;;;;3.58;3.03;;;;;;;;;;5913358;28;20048;-74
2023/09/30 04:21:44;;;;;;;5.20;2.17;;;;;;;;;;5912961;28;20079;-74
2023/09/30 04:24:35;;;;;;;3.67;3.25;;;;;;;;;;5914159;28;20382;-74
2023/09/30 04:27:26;;;;;;;7.68;3.92;;;;;;;;;;5896151;28;20045;-73
2023/09/30 04:30:18;;;;;;;3.30;2.75;;;;;;;;;;5913938;28;20123;-74
2023/09/30 04:33:11;;;;;;;5.28;3.60;;;;;;;;;;5913599;28;20119;-73
2023/09/30 04:36:03;;;;;;;6.38;3.88;;;;;;;;;;5913871;28;20064;-73
2023/09/30 04:38:53;;;;;;;5.00;3.08;;;;;;;;;;5914193;28;20040;-74
2023/09/30 04:41:44;;;;;;;3.70;2.72;;;;;;;;;;5913820;28;20040;-73
2023/09/30 04:44:37;;;;;;;6.88;4.10;;;;;;;;;;5913655;28;20048;-73
2023/09/30 04:47:28;;;;;;;2.78;2.45;;;;;;;;;;5894675;28;20056;-74
2023/09/30 04:50:21;;;;;;;4.47;2.53;;;;;;;;;;5912757;28;20462;-76
2023/09/30 04:53:13;;;;;;;6.38;3.40;;;;;;;;;;5913158;28;20434;-73
2023/09/30 04:56:04;;;;;;;4.22;3.45;;;;;;;;;;5913428;28;20051;-73
2023/09/30 04:58:55;;;;;;;4.28;3.10;;;;;;;;;;5895945;28;20045;-73
2023/09/30 05:01:46;;;;;;;4.93;3.13;;;;;;;;;;5913390;28;20044;-73
2023/09/30 05:04:37;;;;;;;11.07;3.50;;;;;;;;;;5913012;28;20121;-73
2023/09/30 05:07:28;;;;;;;5.63;3.70;;;;;;;;;;5913100;28;20041;-73
2023/09/30 05:10:19;;;;;;;3.50;2.83;;;;;;;;;;5913073;28;20048;-73
2023/09/30 05:13:10;;;;;;;3.00;2.40;;;;;;;;;;5913106;28;20044;-74
2023/09/30 05:16:01;;;;;;;4.95;3.72;;;;;;;;;;5912868;28;20056;-72
2023/09/30 05:18:52;;;;;;;7.28;2.65;;;;;;;;;;5912997;28;20376;-71
2023/09/30 05:21:44;;;;;;;8.80;3.50;;;;;;;;;;5911670;28;20140;-73
2023/09/30 05:24:35;;;;;;;4.90;3.50;;;;;;;;;;5912873;28;20048;-72
2023/09/30 05:27:27;;;;;;;7.43;4.30;;;;;;;;;;5912771;28;20044;-72
2023/09/30 05:30:20;;;;;;;6.20;3.25;;;;;;;;;;5912820;28;20499;-72
2023/09/30 05:33:14;;;;;;;4.07;3.05;;;;;;;;;;5912607;28;20056;-72
2023/09/30 05:36:05;;;;;;;4.70;3.15;;;;;;;;;;5912684;28;20051;-73
2023/09/30 05:38:56;;;;;;;6.00;3.33;;;;;;;;;;5912887;28;20388;-72
2023/09/30 05:41:47;;;;;;;4.13;2.75;;;;;;;;;;5912683;28;20055;-72
2023/09/30 05:44:37;;;;;;;7.43;3.30;;;;;;;;;;5894540;28;20052;-72
2023/09/30 05:47:28;;;;;;;3.60;2.47;;;;;;;;;;5912441;28;20127;-72
2023/09/30 05:50:24;;;;;;;3.33;2.50;;;;;;;;;;5894680;28;20052;-71
2023/09/30 05:53:15;;;;;;;4.30;3.30;;;;;;;;;;5895145;28;20067;-73
2023/09/30 05:56:07;;;;;;;5.15;3.67;;;;;;;;;;5912025;28;20052;-73
2023/09/30 05:58:58;;;;;;;5.93;3.75;;;;;;;;;;5912132;28;20445;-71
2023/09/30 06:01:49;;;;;;;4.75;3.45;;;;;;;;;;5912134;28;20064;-71
2023/09/30 06:04:39;;;;;;;7.45;4.20;;;;;;;;;;5912062;28;20063;-72
2023/09/30 06:07:31;;;;;;;3.08;2.78;;;;;;;;;;5911739;28;20040;-72
2023/09/30 06:10:22;;;;;;;5.97;2.42;;;;;;;;;;5911649;28;20049;-74
2023/09/30 06:13:15;;;;;;;8.77;3.47;;;;;;;;;;5893979;28;20044;-72
2023/09/30 06:16:06;;;;;;;5.30;4.38;;;;;;;;;;5894403;28;20045;-73
2023/09/30 06:19:00;;;;;;;6.35;3.40;;;;;;;;;;5897027;28;20136;-72
2023/09/30 06:21:51;;;;;;;3.95;3.38;;;;;;;;;;5876389;28;20041;-72
2023/09/30 06:24:42;;;;;;;9.57;4.22;;;;;;;;;;5911457;28;20503;-72
2023/09/30 06:27:33;;;;;;;7.15;5.25;;;;;;;;;;5911460;28;20045;-73
2023/09/30 06:30:29;;;;;;;5.90;4.05;;;;;;;;;;5911119;28;20144;-72
2023/09/30 06:33:22;;;;;;;7.82;4.53;;;;;;;;;;5911238;28;20387;-73
2023/09/30 06:36:16;;;;;;;10.50;4.32;;;;;;;;;;5911324;28;20056;-72
2023/09/30 06:39:07;;;;;;;10.18;5.97;;;;;;;;;;5911119;28;20063;-72
2023/09/30 06:41:58;;;;;;;7.10;4.85;;;;;;;;;;5911723;28;20066;-73
2023/09/30 06:44:49;;;;;;;5.95;4.05;;;;;;;;;;5910744;28;20052;-72
2023/09/30 06:47:41;;;;;;;7.00;4.47;;;;;;;;;;5911044;28;20056;-72
2023/09/30 06:50:32;;;;;;;5.55;4.35;;;;;;;;;;5910804;28;20045;-72
2023/09/30 06:53:23;;;;;;;9.98;4.68;;;;;;;;;;5910772;28;20055;-73
2023/09/30 06:56:14;;;;;;;5.68;3.40;;;;;;;;;;5911187;28;20041;-72
2023/09/30 06:59:06;;;;;;;11.48;6.13;;;;;;;;;;5910691;28;20051;-74
2023/09/30 07:01:57;;;;;;;8.82;6.45;;;;;;;;;;5911337;28;20059;-73
2023/09/30 07:04:48;;;;;;;11.75;6.82;;;;;;;;;;5910934;28;20045;-73
2023/09/30 07:07:40;;;;;;;10.88;5.88;;;;;;;;;;5910768;28;20048;-72
2023/09/30 07:10:31;;;;;;;7.22;5.28;;;;;;;;;;5892334;28;20045;-73
2023/09/30 07:13:22;;;;;;;5.20;3.28;;;;;;;;;;5910564;28;20048;-73
2023/09/30 07:16:13;;;;;;;5.57;3.15;;;;;;;;;;5910788;28;20127;-72
2023/09/30 07:19:04;;;;;;;6.75;4.00;;;;;;;;;;5910562;28;20471;-73
2023/09/30 07:21:54;;;;;;;10.18;5.00;;;;;;;;;;5911057;28;20076;-73
2023/09/30 07:24:54;;;;;;;7.18;4.28;;;;;;;;;;5909627;28;20045;-72
2023/09/30 07:27:46;;;;;;;6.28;3.50;;;;;;;;;;5910549;28;20055;-73
2023/09/30 07:30:37;;;;;;;5.18;3.28;;;;;;;;;;5910412;28;20071;-72
2023/09/30 07:33:28;;;;;;;7.75;4.10;;;;;;;;;;5910303;28;20051;-72
2023/09/30 07:36:19;;;;;;;10.05;4.55;;;;;;;;;;5910330;28;20126;-74
2023/09/30 07:39:10;;;;;;;6.68;4.63;;;;;;;;;;5910428;28;20048;-73
2023/09/30 07:42:01;;;;;;;12.40;3.47;;;;;;;;;;5910239;28;20376;-75
2023/09/30 07:44:52;;;;;;;7.22;4.38;;;;;;;;;;5910726;28;20614;-72
2023/09/30 07:47:46;;;;;;;8.20;5.00;;;;;;;;;;5910103;28;20045;-72
2023/09/30 07:50:38;;;;;;;14.07;5.13;;;;;;;;;;5910351;28;20099;-72
2023/09/30 07:53:29;;;;;;;5.53;3.75;;;;;;;;;;5908941;28;20342;-73
2023/09/30 07:56:21;;;;;;;6.57;3.90;;;;;;;;;;5910249;28;20625;-71
2023/09/30 07:59:13;;;;;;;8.30;4.55;;;;;;;;;;5909921;28;20051;-73
2023/09/30 08:02:04;;;;;;;4.70;3.05;;;;;;;;;;5910105;28;20491;-72
2023/09/30 08:04:55;;;;;;;17.50;6.80;;;;;;;;;;5910567;28;20045;-72
2023/09/30 08:07:46;;;;;;;8.50;5.03;;;;;;;;;;5910109;28;20048;-72
2023/09/30 08:10:37;;;;;;;4.68;4.10;;;;;;;;;;5909877;28;20059;-71
2023/09/30 08:13:29;;;;;;;5.35;3.92;;;;;;;;;;5909817;28;20046;-71
2023/09/30 08:16:19;;;;;;;9.13;5.57;;;;;;;;;;5909822;28;20091;-73
2023/09/30 08:19:12;;;;;;;5.28;4.20;;;;;;;;;;5910045;28;20480;-72
2023/09/30 08:22:06;;;;;;;5.28;4.18;;;;;;;;;;5909949;28;20052;-72
2023/09/30 08:24:57;;;;;;;5.47;4.03;;;;;;;;;;5896876;28;20046;-72
2023/09/30 08:27:49;;;;;;;9.95;5.45;;;;;;;;;;5914095;28;20483;-73
2023/09/30 08:30:40;;;;;;;15.68;4.38;;;;;;;;;;5914272;28;20504;-72
2023/09/30 08:33:32;;;;;;;7.60;5.00;;;;;;;;;;5913984;28;20048;-74
2023/09/30 08:36:23;;;;;;;8.10;4.40;;;;;;;;;;5913492;28;20507;-73
2023/09/30 08:39:14;;;;;;;9.40;4.82;;;;;;;;;;5914086;28;20048;-74
2023/09/30 08:42:11;;;;;;;12.13;4.55;;;;;;;;;;5913969;28;20518;-73
2023/09/30 08:45:06;;;;;;;6.72;3.58;;;;;;;;;;5913635;28;20043;-72
2023/09/30 08:48:00;;;;;;;6.00;4.68;;;;;;;;;;5914189;28;20491;-73
2023/09/30 08:50:54;;;;;;;6.13;4.68;;;;;;;;;;5912842;28;20064;-72
2023/09/30 08:53:45;;;;;;;10.80;5.68;;;;;;;;;;5913092;28;20056;-72
2023/09/30 08:56:40;;;;;;;12.50;4.45;;;;;;;;;;5913537;28;20055;-73
2023/09/30 08:59:35;;;;;;;13.50;5.35;;;;;;;;;;5908328;28;20049;-74
2023/09/30 09:02:25;;;;;;;14.05;5.50;;;;;;;;;;5895991;28;20036;-73
2023/09/30 09:05:16;;;;;;;7.53;4.82;;;;;;;;;;5895804;28;20579;-73
2023/09/30 09:08:09;;;;;;;7.28;4.90;;;;;;;;;;5913513;28;20476;-74
2023/09/30 09:11:02;;;;;;;7.18;4.60;;;;;;;;;;5913592;28;20045;-74
2023/09/30 09:13:56;;;;;;;10.30;5.63;;;;;;;;;;5895877;28;20131;-74
2023/09/30 09:16:57;;;;;;;8.35;4.88;;;;;;;;;;5913377;28;20047;-74
2023/09/30 09:20:00;;;;;;;11.27;6.65;;;;;;;;;;5912860;28;20074;-72
2023/09/30 09:22:55;;;;;;;10.98;5.88;;;;;;;;;;5913249;28;20060;-72
2023/09/30 09:25:49;;;;;;;10.18;5.28;;;;;;;;;;5912893;28;20045;-73
2023/09/30 09:28:41;;;;;;;11.25;5.70;;;;;;;;;;5912803;28;20044;-72
2023/09/30 09:31:35;;;;;;;14.23;4.60;;;;;;;;;;5912697;28;20500;-74
2023/09/30 09:34:26;;;;;;;7.85;5.22;;;;;;;;;;5894238;28;20045;-72
2023/09/30 09:37:19;;;;;;;8.60;6.43;;;;;;;;;;5895047;28;20045;-72
2023/09/30 09:40:13;;;;;;;11.43;5.70;;;;;;;;;;5912368;28;20570;-73
2023/09/30 09:43:05;;;;;;;7.38;5.05;;;;;;;;;;5912462;28;20044;-74
2023/09/30 09:45:57;;;;;;;8.70;5.25;;;;;;;;;;5912705;28;20053;-75
2023/09/30 09:48:48;;;;;;;7.82;4.97;;;;;;;;;;5911186;28;20064;-74
2023/09/30 09:51:39;;;;;;;7.80;5.40;;;;;;;;;;5910863;28;20071;-75
2023/09/30 09:54:32;;;;;;;8.57;5.10;;;;;;;;;;5894230;28;20054;-73
2023/09/30 09:57:25;;;;;;;6.30;3.40;;;;;;;;;;5912099;28;20044;-77
2023/09/30 10:00:20;;;;;;;6.80;5.38;;;;;;;;;;5894480;28;20048;-73
2023/09/30 10:03:11;;;;;;;8.93;5.10;;;;;;;;;;5894111;28;20044;-76
2023/09/30 10:06:04;;;;;;;8.50;5.35;;;;;;;;;;5911938;28;20037;-76
2023/09/30 10:08:57;;;;;;;9.80;5.00;;;;;;;;;;5912353;28;20045;-73
2023/09/30 10:11:49;;;;;;;9.25;4.70;;;;;;;;;;5894462;28;20503;-75
2023/09/30 10:14:39;;;;;;;4.22;3.60;;;;;;;;;;5911506;28;20045;-77
2023/09/30 10:18:03;;;;;;;7.35;4.13;;;;;;;;;;5911419;28;20376;-74
2023/09/30 10:21:09;;;;;;;7.93;4.45;;;;;;;;;;5911635;28;20094;-76
2023/09/30 10:24:29;;;;;;;7.57;4.22;;;;;;;;;;5894332;28;20036;-74
2023/09/30 10:27:28;;;;;;;5.72;3.50;;;;;;;;;;5909888;28;20032;-75
2023/09/30 10:30:20;;;;;;;4.43;3.42;;;;;;;;;;5911263;28;20040;-75
2023/09/30 10:33:11;;;;;;;4.70;3.17;;;;;;;;;;5911156;28;20150;-74
2023/09/30 10:36:08;;;;;;;4.70;3.38;;;;;;;;;;5911088;28;20066;-74
2023/09/30 10:39:00;;;;;;;2.88;2.67;;;;;;;;;;5911194;28;20048;-73
2023/09/30 10:41:51;;;;;;;3.80;3.10;;;;;;;;;;5911689;28;20045;-76
2023/09/30 10:44:42;;;;;;;3.65;2.60;;;;;;;;;;5910722;28;20040;-76
2023/09/30 10:47:33;;;;;;;4.13;3.15;;;;;;;;;;5893425;28;20430;-75
2023/09/30 10:50:51;;;;;;;7.82;4.20;;;;;;;;;;5911092;28;20491;-73
2023/09/30 10:53:51;;;;;;;5.73;2.70;;;;;;;;;;5905674;28;20048;-74
2023/09/30 10:56:42;;;;;;;2.70;2.25;;;;;;;;;;5893414;28;20289;-75
2023/09/30 10:59:34;;;;;;;4.95;3.60;;;;;;;;;;5910727;28;20044;-74
2023/09/30 11:02:26;;;;;;;6.32;3.30;;;;;;;;;;5910776;28;20037;-75
2023/09/30 11:05:20;;;;;;;11.05;3.75;;;;;;;;;;5910831;28;20642;-76
2023/09/30 11:08:31;;;;;;;3.58;2.63;;;;;;;;;;5910489;28;20044;-76
2023/09/30 11:11:53;;;;;;;4.75;3.75;;;;;;;;;;5910678;28;20120;-77
2023/09/30 11:14:45;;;;;;;5.75;3.95;;;;;;;;;;5902451;28;20049;-74
2023/09/30 11:17:36;;;;;;;4.75;3.78;;;;;;;;;;5910570;28;20045;-75
2023/09/30 11:20:27;;;;;;;5.90;3.90;;;;;;;;;;5910282;28;20067;-77
2023/09/30 11:23:18;;;;;;;6.07;3.38;;;;;;;;;;5910271;28;20056;-77
2023/09/30 11:26:09;;;;;;;7.68;3.85;;;;;;;;;;5892745;28;20036;-77
2023/09/30 11:29:13;;;;;;;17.63;5.05;;;;;;;;;;5910843;28;20055;-75
2023/09/30 11:32:04;;;;;;;4.20;2.80;;;;;;;;;;5910218;28;20049;-73
2023/09/30 11:34:55;;;;;;;4.93;3.42;;;;;;;;;;5911125;28;20052;-74
2023/09/30 11:37:46;;;;;;;5.10;3.75;;;;;;;;;;5910313;28;20041;-77
2023/09/30 11:40:38;;;;;;;5.43;3.45;;;;;;;;;;5910332;28;20044;-74
2023/09/30 11:43:29;;;;;;;3.65;3.05;;;;;;;;;;5892280;28;20037;-75
2023/09/30 11:46:20;;;;;;;5.10;3.40;;;;;;;;;;5910128;28;20053;-73
2023/09/30 11:49:12;;;;;;;3.72;2.97;;;;;;;;;;5909936;28;20123;-76
2023/09/30 11:52:09;;;;;;;6.32;3.72;;;;;;;;;;5892483;28;20132;-73
2023/09/30 11:55:01;;;;;;;10.25;5.03;;;;;;;;;;5910891;28;20044;-75
2023/09/30 11:57:54;;;;;;;4.03;3.47;;;;;;;;;;5913089;28;20044;-76
2023/09/30 12:00:45;;;;;;;5.65;2.83;;;;;;;;;;5914458;28;20179;-73
2023/09/30 12:03:39;;;;;;;4.22;3.00;;;;;;;;;;5914562;28;20475;-72
2023/09/30 12:06:31;;;;;;;8.02;2.92;;;;;;;;;;5914623;28;20121;-74
2023/09/30 12:09:22;;;;;;;3.63;2.67;;;;;;;;;;5914408;28;20052;-75
2023/09/30 12:12:14;;;;;;;4.35;2.88;;;;;;;;;;5914164;28;20045;-75
2023/09/30 12:15:06;;;;;;;5.22;2.78;;;;;;;;;;5914457;28;20045;-73
2023/09/30 12:17:59;;;;;;;4.97;2.60;;;;;;;;;;5915010;28;20044;-75
2023/09/30 12:20:53;;;;;;;2.53;1.88;;;;;;;;;;5912919;28;20482;-74
2023/09/30 12:23:44;;;;;;;2.80;1.83;;;;;;;;;;5913799;28;20044;-73
2023/09/30 12:26:37;;;;;;;2.63;1.73;;;;;;;;;;5914406;28;20040;-73
2023/09/30 12:29:28;;;;;;;2.97;1.77;;;;;;;;;;5896729;28;20097;-75
2023/09/30 12:32:19;;;;;;;2.58;1.65;;;;;;;;;;5914172;28;20486;-75
2023/09/30 12:35:10;;;;;;;1.92;1.55;;;;;;;;;;5913871;28;20411;-75
2023/09/30 12:38:01;;;;;;;3.05;1.35;;;;;;;;;;5913000;28;20053;-74
2023/09/30 12:40:53;;;;;;;13.75;1.35;;;;;;;;;;5914420;28;20049;-75
2023/09/30 12:43:43;;;;;;;2.08;1.30;;;;;;;;;;5913855;28;20041;-74
2023/09/30 12:46:36;;;;;;;2.38;2.03;;;;;;;;;;5913641;28;20113;-74
2023/09/30 12:49:27;;;;;;;3.58;1.75;;;;;;;;;;5913750;28;20051;-74
2023/09/30 12:52:18;;;;;;;3.95;1.90;;;;;;;;;;5913642;28;20414;-74
2023/09/30 12:55:10;;;;;;;2.38;1.13;;;;;;;;;;5913649;28;20048;-74
2023/09/30 12:58:01;;;;;;;1.98;1.50;;;;;;;;;;5913933;28;20119;-76
2023/09/30 13:00:51;;;;;;;1.60;1.33;;;;;;;;;;5905574;28;20049;-74
2023/09/30 13:03:42;;;;;;;3.13;1.55;;;;;;;;;;5912985;28;20044;-73
2023/09/30 13:06:35;;;;;;;5.53;1.30;;;;;;;;;;5913502;28;20479;-75
2023/09/30 13:09:26;;;;;;;3.88;1.70;;;;;;;;;;5911883;28;20566;-74
2023/09/30 13:12:17;;;;;;;1.70;0.85;;;;;;;;;;5913259;28;20048;-75
2023/09/30 13:15:08;;;;;;;3.80;1.55;;;;;;;;;;5912855;28;20040;-74
2023/09/30 13:17:59;;;;;;;1.17;1.08;;;;;;;;;;5913644;28;20491;-74
2023/09/30 13:20:52;;;;;;;2.45;1.00;;;;;;;;;;5912718;28;20040;-73
2023/09/30 13:23:42;;;;;;;3.35;1.67;;;;;;;;;;5912619;28;20051;-74
2023/09/30 13:26:33;;;;;;;1.95;1.33;;;;;;;;;;5912964;28;20048;-74
2023/09/30 13:29:24;;;;;;;2.03;1.70;;;;;;;;;;5912725;28;20045;-72
2023/09/30 13:32:15;;;;;;;7.03;1.75;;;;;;;;;;5912915;28;20048;-75
2023/09/30 13:35:06;;;;;;;2.42;1.90;;;;;;;;;;5912427;28;20049;-76
2023/09/30 13:37:58;;;;;;;2.15;1.08;;;;;;;;;;5913254;28;20599;-72
2023/09/30 13:40:49;;;;;;;3.97;1.67;;;;;;;;;;5912165;28;20063;-75
2023/09/30 13:43:39;;;;;;;2.47;1.70;;;;;;;;;;5912139;28;20048;-74
2023/09/30 13:46:30;;;;;;;3.13;2.03;;;;;;;;;;5912369;28;20500;-76
2023/09/30 13:49:21;;;;;;;4.38;1.83;;;;;;;;;;5894771;28;20063;-74
2023/09/30 13:52:12;;;;;;;2.67;1.70;;;;;;;;;;5912118;28;20044;-74
2023/09/30 13:55:04;;;;;;;12.13;1.88;;;;;;;;;;5912214;28;20052;-75
2023/09/30 13:57:55;;;;;;;1.95;1.48;;;;;;;;;;5912544;28;20175;-74
2023/09/30 14:00:49;;;;;;;2.42;1.58;;;;;;;;;;5911871;28;20075;-75
2023/09/30 14:03:40;;;;;;;4.63;1.42;;;;;;;;;;5911920;28;20080;-74
2023/09/30 14:06:32;;;;;;;2.08;1.48;;;;;;;;;;5912231;28;20044;-73
2023/09/30 14:09:24;;;;;;;2.08;1.33;;;;;;;;;;5911237;28;20056;-73
2023/09/30 14:12:25;;;;;;;1.83;1.33;;;;;;;;;;5906079;28;20037;-73
2023/09/30 14:15:16;;;;;;;2.05;1.63;;;;;;;;;;5911642;28;20076;-75
2023/09/30 14:18:08;;;;;;;1.38;0.82;;;;;;;;;;5911689;28;20345;-73
2023/09/30 14:20:59;;;;;;;3.40;1.20;;;;;;;;;;5911976;28;20443;-75
2023/09/30 14:23:49;;;;;;;3.45;1.77;;;;;;;;;;5911865;28;20032;-75
2023/09/30 14:26:40;;;;;;;8.43;1.50;;;;;;;;;;5907908;28;20048;-74
2023/09/30 14:29:32;;;;;;;3.25;1.30;;;;;;;;;;5911479;28;20052;-75
2023/09/30 14:32:23;;;;;;;2.20;1.65;;;;;;;;;;5909974;28;20389;-73
2023/09/30 14:35:14;;;;;;;9.40;2.20;;;;;;;;;;5910974;28;20041;-74
2023/09/30 14:38:05;;;;;;;8.32;1.75;;;;;;;;;;5911529;28;20040;-73
2023/09/30 14:40:56;;;;;;;5.90;1.60;;;;;;;;;;5911071;28;20059;-76
2023/09/30 14:43:47;;;;;;;1.42;1.08;;;;;;;;;;5909814;28;20044;-76
2023/09/30 14:46:39;;;;;;;3.78;1.83;;;;;;;;;;5910740;28;20045;-74
2023/09/30 14:49:31;;;;;;;1.85;1.38;;;;;;;;;;5911084;28;20049;-74
2023/09/30 14:52:22;;;;;;;3.83;1.02;;;;;;;;;;5911400;28;20102;-75
2023/09/30 14:55:13;;;;;;;6.43;1.65;;;;;;;;;;5910861;28;20055;-73
2023/09/30 14:58:04;;;;;;;4.15;2.05;;;;;;;;;;5910867;28;20044;-75
2023/09/30 15:00:55;;;;;;;6.63;2.33;;;;;;;;;;5893481;28;20123;-73
2023/09/30 15:03:46;;;;;;;6.32;1.52;;;;;;;;;;5910364;28;20080;-75
2023/09/30 15:06:36;;;;;;;6.15;2.47;;;;;;;;;;5910603;28;20364;-74
2023/09/30 15:09:28;;;;;;;2.72;1.55;;;;;;;;;;5910630;28;20068;-73
2023/09/30 15:12:19;;;;;;;5.10;1.45;;;;;;;;;;5910692;28;20498;-75
2023/09/30 15:15:10;;;;;;;1.27;0.80;;;;;;;;;;5910393;28;20123;-73
2023/09/30 15:18:01;;;;;;;2.15;1.52;;;;;;;;;;5893253;28;20072;-74
2023/09/30 15:20:51;;;;;;;23.38;1.45;;;;;;;;;;5909504;28;20040;-74
2023/09/30 15:23:43;;;;;;;5.05;1.88;;;;;;;;;;5909973;28;20044;-74
2023/09/30 15:26:36;;;;;;;4.22;1.73;;;;;;;;;;5910405;28;20063;-73
2023/09/30 15:29:27;;;;;;;1.70;1.10;;;;;;;;;;5910361;28;20081;-75
2023/09/30 15:32:17;;;;;;;0.98;0.88;;;;;;;;;;5909736;28;20041;-74
2023/09/30 15:35:09;;;;;;;2.88;1.20;;;;;;;;;;5910232;28;20052;-74
2023/09/30 15:38:00;;;;;;;3.63;1.63;;;;;;;;;;5910892;28;20051;-75
2023/09/30 15:40:57;;;;;;;6.53;2.15;;;;;;;;;;5910482;28;20487;-74
2023/09/30 15:43:48;;;;;;;7.35;2.60;;;;;;;;;;5910187;28;20447;-74
2023/09/30 15:46:39;;;;;;;13.20;2.58;;;;;;;;;;5910149;28;20123;-79
2023/09/30 15:49:29;;;;;;;5.38;1.48;;;;;;;;;;5910258;28;20383;-75
2023/09/30 15:52:21;;;;;;;4.68;1.25;;;;;;;;;;5910261;28;20055;-74
2023/09/30 15:55:12;;;;;;;5.85;1.92;;;;;;;;;;5910185;28;20043;-75
2023/09/30 15:58:05;;;;;;;5.05;1.85;;;;;;;;;;5910040;28;20072;-75
2023/09/30 16:00:56;;;;;;;6.32;2.13;;;;;;;;;;5876323;28;20044;-76
2023/09/30 16:03:48;;;;;;;1.85;1.60;;;;;;;;;;5909641;28;20467;-74
2023/09/30 16:06:42;;;;;;;5.00;1.92;;;;;;;;;;5909896;28;20459;-75
2023/09/30 16:09:32;;;;;;;9.60;4.10;;;;;;;;;;5910158;28;20142;-75
2023/09/30 16:12:23;;;;;;;3.80;2.42;;;;;;;;;;5909841;28;20049;-72
2023/09/30 16:15:15;;;;;;;18.30;4.70;;;;;;;;;;5892167;28;20044;-74
2023/09/30 16:18:06;;;;;;;5.88;4.13;;;;;;;;;;5909980;28;20537;-74
2023/09/30 16:20:57;;;;;;;7.70;3.88;;;;;;;;;;5892528;28;20142;-73
2023/09/30 16:23:48;;;;;;;6.70;3.53;;;;;;;;;;5909758;28;20094;-74
2023/09/30 16:26:40;;;;;;;6.22;3.25;;;;;;;;;;5909665;28;20052;-74
2023/09/30 16:29:30;;;;;;;7.47;3.35;;;;;;;;;;5909729;28;20048;-72
2023/09/30 16:32:21;;;;;;;7.95;3.42;;;;;;;;;;5892010;28;20052;-75
2023/09/30 16:35:12;;;;;;;4.97;2.65;;;;;;;;;;5909907;28;20135;-72
2023/09/30 16:38:03;;;;;;;10.13;3.78;;;;;;;;;;5909835;28;20044;-74
2023/09/30 16:40:54;;;;;;;5.03;3.50;;;;;;;;;;5909847;28;20045;-73
2023/09/30 16:43:45;;;;;;;6.28;2.97;;;;;;;;;;5911756;28;20051;-74
2023/09/30 16:46:36;;;;;;;2.65;1.88;;;;;;;;;;5913399;28;20376;-72
2023/09/30 16:49:27;;;;;;;2.88;1.73;;;;;;;;;;5913468;28;20051;-74
2023/09/30 16:52:18;;;;;;;1.80;1.45;;;;;;;;;;5913850;28;20388;-74
2023/09/30 16:55:08;;;;;;;10.88;1.50;;;;;;;;;;5913396;28;20051;-73
2023/09/30 16:57:59;;;;;;;2.65;1.75;;;;;;;;;;5914000;28;20045;-74
2023/09/30 17:00:50;;;;;;;4.43;1.48;;;;;;;;;;5913612;28;20052;-75
2023/09/30 17:03:41;;;;;;;9.63;1.58;;;;;;;;;;5913146;28;20045;-74
2023/09/30 17:06:33;;;;;;;9.82;1.20;;;;;;;;;;5913499;28;20040;-73
2023/09/30 17:09:24;;;;;;;1.80;1.02;;;;;;;;;;5913260;28;20399;-73